createdAt,value
2022-11-25T00:01:42.239Z,6.47
2022-11-25T00:04:11.478Z,6.50
2022-11-25T00:06:40.125Z,6.18
2022-11-25T00:09:13.381Z,5.63
2022-11-25T00:11:44.019Z,6.07
2022-11-25T00:14:16.804Z,6.35
2022-11-25T00:16:48.635Z,5.82
2022-11-25T00:19:18.221Z,6.32
2022-11-25T00:21:47.126Z,5.70
2022-11-25T00:24:18.220Z,6.80
2022-11-25T00:26:47.108Z,6.05
2022-11-25T00:29:16.023Z,5.88
2022-11-25T00:31:45.222Z,6.35
2022-11-25T00:34:15.409Z,5.78
2022-11-25T00:36:44.069Z,5.72
2022-11-25T00:39:15.579Z,6.53
2022-11-25T00:42:05.333Z,6.50
2022-11-25T00:44:38.320Z,6.13
2022-11-25T00:47:11.250Z,6.85
2022-11-25T00:49:42.148Z,6.25
2022-11-25T00:52:15.982Z,6.57
2022-11-25T00:54:44.960Z,6.18
2022-11-25T00:57:16.250Z,6.35
2022-11-25T00:59:44.916Z,6.57
2022-11-25T01:02:15.182Z,5.80
2022-11-25T01:04:44.307Z,6.95
2022-11-25T01:07:13.703Z,6.65
2022-11-25T01:09:42.351Z,6.88
2022-11-25T01:12:11.467Z,7.07
2022-11-25T01:14:41.747Z,6.82
2022-11-25T01:17:10.469Z,6.65
2022-11-25T01:19:40.579Z,7.22
2022-11-25T01:22:10.521Z,6.75
2022-11-25T01:24:39.965Z,6.97
2022-11-25T01:27:08.865Z,6.93
2022-11-25T01:29:37.557Z,7.10
2022-11-25T01:32:08.175Z,7.53
2022-11-25T01:34:37.749Z,6.78
2022-11-25T01:37:07.054Z,6.95
2022-11-25T01:39:35.911Z,6.50
2022-11-25T01:42:05.108Z,7.50
2022-11-25T01:44:34.872Z,7.35
2022-11-25T01:47:15.505Z,7.57
2022-11-25T01:49:49.481Z,6.90
2022-11-25T01:52:24.069Z,6.78
2022-11-25T01:54:59.059Z,6.18
2022-11-25T01:57:34.481Z,6.93
2022-11-25T02:00:08.347Z,5.95
2022-11-25T02:02:38.602Z,5.72
2022-11-25T02:05:12.209Z,5.50
2022-11-25T02:07:44.301Z,5.43
2022-11-25T02:10:18.341Z,5.20
2022-11-25T02:12:48.995Z,5.05
2022-11-25T02:15:18.567Z,5.10
2022-11-25T02:17:48.736Z,5.10
2022-11-25T02:20:20.372Z,4.75
2022-11-25T02:23:01.108Z,4.10
2022-11-25T02:25:33.269Z,5.28
2022-11-25T02:28:07.809Z,4.68
2022-11-25T02:30:36.792Z,4.15
2022-11-25T02:33:05.693Z,5.03
2022-11-25T02:35:37.387Z,4.57
2022-11-25T02:38:11.935Z,6.15
2022-11-25T02:40:59.006Z,5.53
2022-11-25T02:43:28.291Z,5.45
2022-11-25T02:46:02.176Z,5.00
2022-11-25T02:51:28.628Z,4.45
2022-11-25T02:53:58.198Z,4.22
2022-11-25T02:56:32.443Z,4.10
2022-11-25T02:59:01.811Z,4.30
2022-11-25T03:01:31.884Z,3.80
2022-11-25T03:04:01.524Z,3.85
2022-11-25T03:06:30.978Z,4.10
2022-11-25T03:09:02.242Z,4.30
2022-11-25T03:11:57.845Z,4.32
2022-11-25T03:14:26.705Z,4.32
2022-11-25T03:16:55.862Z,4.32
2022-11-25T03:19:24.645Z,3.65
2022-11-25T03:21:53.787Z,3.60
2022-11-25T03:24:22.567Z,2.83
2022-11-25T03:26:52.823Z,3.00
2022-11-25T03:29:21.424Z,2.85
2022-11-25T03:31:50.124Z,3.10
2022-11-25T03:34:19.351Z,2.60
2022-11-25T03:36:47.917Z,3.15
2022-11-25T03:39:17.577Z,2.67
2022-11-25T03:41:46.633Z,2.50
2022-11-25T03:44:17.445Z,2.40
2022-11-25T03:46:46.318Z,2.80
2022-11-25T03:49:15.140Z,2.38
2022-11-25T03:51:44.168Z,3.08
2022-11-25T03:54:12.952Z,2.78
2022-11-25T03:56:42.568Z,2.95
2022-11-25T03:59:11.254Z,3.60
2022-11-25T04:01:44.242Z,3.75
2022-11-25T04:04:13.843Z,3.55
2022-11-25T04:06:42.619Z,3.88
2022-11-25T04:09:13.702Z,3.95
2022-11-25T04:12:00.076Z,3.28
2022-11-25T04:14:29.499Z,3.83
2022-11-25T04:16:59.808Z,3.80
2022-11-25T04:19:28.737Z,3.47
2022-11-25T04:21:59.881Z,3.63
2022-11-25T04:24:29.239Z,3.67
2022-11-25T04:26:58.406Z,3.42
2022-11-25T04:29:27.230Z,3.70
2022-11-25T04:31:55.849Z,3.38
2022-11-25T04:34:26.612Z,3.63
2022-11-25T04:36:55.503Z,2.95
2022-11-25T04:39:24.847Z,3.75
2022-11-25T04:42:13.841Z,3.45
2022-11-25T04:44:48.716Z,3.08
2022-11-25T04:47:31.205Z,3.65
2022-11-25T04:50:01.716Z,3.95
2022-11-25T04:52:30.693Z,4.00
2022-11-25T04:54:59.670Z,3.97
2022-11-25T04:57:28.714Z,3.92
2022-11-25T04:59:57.859Z,4.28
2022-11-25T05:02:29.807Z,3.75
2022-11-25T05:05:03.185Z,4.57
2022-11-25T05:07:32.238Z,4.22
2022-11-25T05:10:01.337Z,4.53
2022-11-25T05:12:31.272Z,4.20
2022-11-25T05:14:59.872Z,4.50
2022-11-25T05:17:32.257Z,4.93
2022-11-25T05:20:04.897Z,5.20
2022-11-25T05:22:36.007Z,4.78
2022-11-25T05:25:06.703Z,4.68
2022-11-25T05:27:35.535Z,5.00
2022-11-25T05:30:04.408Z,4.90
2022-11-25T05:32:33.295Z,5.22
2022-11-25T05:35:03.887Z,4.95
2022-11-25T05:37:32.716Z,4.82
2022-11-25T05:40:01.758Z,5.10
2022-11-25T05:42:36.377Z,5.18
2022-11-25T05:45:06.417Z,5.55
2022-11-25T05:47:35.614Z,4.95
2022-11-25T05:50:07.095Z,5.93
2022-11-25T05:52:35.820Z,5.00
2022-11-25T05:55:04.536Z,4.95
2022-11-25T05:57:33.768Z,5.60
2022-11-25T06:00:02.907Z,4.88
2022-11-25T06:02:31.765Z,5.60
2022-11-25T06:05:00.794Z,5.10
2022-11-25T06:07:31.230Z,5.43
2022-11-25T06:10:03.075Z,5.20
2022-11-25T06:12:32.935Z,4.88
2022-11-25T06:15:01.901Z,5.25
2022-11-25T06:17:30.574Z,5.07
2022-11-25T06:19:59.609Z,4.95
2022-11-25T06:22:29.771Z,4.68
2022-11-25T06:25:03.307Z,4.90
2022-11-25T06:27:56.808Z,4.85
2022-11-25T06:30:25.867Z,5.20
2022-11-25T06:32:58.101Z,5.65
2022-11-25T06:35:26.880Z,5.30
2022-11-25T06:37:57.774Z,5.05
2022-11-25T06:40:27.298Z,6.28
2022-11-25T06:42:56.225Z,5.30
2022-11-25T06:45:32.928Z,5.60
2022-11-25T06:48:02.055Z,6.30
2022-11-25T06:50:36.670Z,5.63
2022-11-25T06:53:07.132Z,6.38
2022-11-25T06:55:36.636Z,6.72
2022-11-25T06:58:34.424Z,5.90
2022-11-25T07:01:02.148Z,6.47
2022-11-25T07:03:31.365Z,6.47
2022-11-25T07:06:03.241Z,6.35
2022-11-25T07:08:34.581Z,6.40
2022-11-25T07:11:10.818Z,5.65
2022-11-25T07:13:40.841Z,5.65
2022-11-25T12:25:44.683Z,4.15
2022-11-25T12:28:20.520Z,4.35
2022-11-25T12:31:05.372Z,3.85
2022-11-25T12:33:48.463Z,3.85
2022-11-25T12:36:24.593Z,4.57
2022-11-25T12:38:58.898Z,4.13
2022-11-25T12:41:37.847Z,4.20
2022-11-25T12:44:14.806Z,4.13
2022-11-25T12:46:48.757Z,4.10
2022-11-25T12:49:22.350Z,3.70
2022-11-25T12:52:41.503Z,3.95
2022-11-25T12:55:20.007Z,4.07
2022-11-25T12:58:22.704Z,4.18
2022-11-25T13:01:27.535Z,3.70
2022-11-25T13:04:22.463Z,4.70
2022-11-25T13:07:23.401Z,3.97
2022-11-25T13:10:31.606Z,4.70
2022-11-25T13:13:22.843Z,4.35
2022-11-25T13:15:55.733Z,4.25
2022-11-25T13:18:29.421Z,5.30
2022-11-25T13:24:59.908Z,4.80
2022-11-25T13:27:36.318Z,4.35
2022-11-25T13:30:05.885Z,4.65
2022-11-25T13:32:43.768Z,5.10
2022-11-25T13:35:38.953Z,5.38
2022-11-25T13:38:56.091Z,4.03
2022-11-25T13:41:46.528Z,4.93
2022-11-25T13:44:30.202Z,4.93
2022-11-25T13:47:01.968Z,4.95
2022-11-25T13:49:38.680Z,4.63
2022-11-25T13:52:39.423Z,4.60
2022-11-25T13:55:27.259Z,4.68
2022-11-25T13:58:19.121Z,5.10
2022-11-25T14:01:29.494Z,4.45
2022-11-25T14:04:01.659Z,4.95
2022-11-25T14:07:08.421Z,4.70
2022-11-25T14:10:04.919Z,4.53
2022-11-25T14:12:54.389Z,4.70
2022-11-25T14:16:16.046Z,4.35
2022-11-25T14:19:49.952Z,4.75
2022-11-25T14:22:36.973Z,4.68
2022-11-25T14:25:21.597Z,5.50
2022-11-25T14:28:02.360Z,5.38
2022-11-25T14:30:33.264Z,4.70
2022-11-25T14:33:07.627Z,4.97
2022-11-25T14:35:45.538Z,5.13
2022-11-25T14:38:22.272Z,5.28
2022-11-25T14:41:00.801Z,4.95
2022-11-25T14:43:32.243Z,5.07
2022-11-25T14:46:17.106Z,5.63
2022-11-25T14:48:46.401Z,4.57
2022-11-25T14:51:18.777Z,4.70
2022-11-25T14:53:49.795Z,5.55
2022-11-25T14:56:24.734Z,4.85
2022-11-25T14:58:56.228Z,4.60
2022-11-25T15:01:31.393Z,4.60
2022-11-25T15:04:06.304Z,5.47
2022-11-25T15:06:39.407Z,5.65
2022-11-25T15:09:23.152Z,4.95
2022-11-25T15:11:58.064Z,4.97
2022-11-25T15:14:31.279Z,5.07
2022-11-25T15:17:01.628Z,5.00
2022-11-25T15:19:36.531Z,4.45
2022-11-25T15:22:24.878Z,4.38
2022-11-25T15:24:56.969Z,4.60
2022-11-25T15:30:02.273Z,4.82
2022-11-25T15:32:34.442Z,4.82
2022-11-25T15:35:18.289Z,5.32
2022-11-25T15:37:50.993Z,4.63
2022-11-25T15:40:37.475Z,6.82
2022-11-25T15:43:10.008Z,6.47
2022-11-25T15:45:46.391Z,8.25
2022-11-25T15:48:20.492Z,5.70
2022-11-25T15:50:50.445Z,4.63
2022-11-25T15:53:33.169Z,4.57
2022-11-25T15:56:03.754Z,4.50
2022-11-25T15:58:36.380Z,5.68
2022-11-25T16:01:08.040Z,6.10
2022-11-25T16:03:38.345Z,5.70
2022-11-25T16:06:23.405Z,5.28
2022-11-25T16:09:00.274Z,5.35
2022-11-25T16:11:33.912Z,5.25
2022-11-25T16:14:26.953Z,4.65
2022-11-25T16:17:03.027Z,5.05
2022-11-25T16:19:38.270Z,6.07
2022-11-25T16:22:07.503Z,5.80
2022-11-25T16:24:43.710Z,6.20
2022-11-25T16:27:26.919Z,6.25
2022-11-25T16:30:09.637Z,7.18
2022-11-25T16:32:39.004Z,5.35
2022-11-25T16:35:18.856Z,5.85
2022-11-25T16:37:49.406Z,7.20
2022-11-25T16:40:20.863Z,6.95
2022-11-25T16:42:53.609Z,6.93
2022-11-25T16:45:25.814Z,5.57
2022-11-25T16:47:55.107Z,6.38
2022-11-25T16:50:25.880Z,6.90
2022-11-25T16:52:54.607Z,5.65
2022-11-25T16:55:25.754Z,8.10
2022-11-25T16:57:55.693Z,7.30
2022-11-25T17:00:25.029Z,6.70
2022-11-25T17:02:54.268Z,5.38
2022-11-25T17:05:26.101Z,6.50
2022-11-25T17:07:55.375Z,5.82
2022-11-25T17:10:25.654Z,7.03
2022-11-25T17:12:54.543Z,6.60
2022-11-25T17:15:31.169Z,6.95
2022-11-25T17:18:01.435Z,6.43
2022-11-25T17:20:30.080Z,6.15
2022-11-25T17:23:00.766Z,7.03
2022-11-25T17:25:36.638Z,7.13
2022-11-25T17:28:14.079Z,7.30
2022-11-25T17:30:44.123Z,10.15
2022-11-25T17:33:18.246Z,10.38
2022-11-25T17:35:47.869Z,7.72
2022-11-25T17:38:21.014Z,6.63
2022-11-25T17:40:52.045Z,6.45
2022-11-25T17:43:22.705Z,6.57
2022-11-25T17:45:51.737Z,8.48
2022-11-25T17:48:20.695Z,7.78
2022-11-25T17:50:49.767Z,8.05
2022-11-25T17:53:18.767Z,8.40
2022-11-25T17:55:47.886Z,9.82
2022-11-25T17:58:19.810Z,9.13
2022-11-25T18:00:49.075Z,10.02
2022-11-25T18:03:19.103Z,9.07
2022-11-25T18:05:48.808Z,8.98
2022-11-25T18:08:31.501Z,8.10
2022-11-25T18:11:04.189Z,9.25
2022-11-25T18:13:39.580Z,12.45
2022-11-25T18:16:09.936Z,9.75
2022-11-25T18:18:39.116Z,10.45
2022-11-25T18:21:08.289Z,8.65
2022-11-25T18:23:37.281Z,9.25
2022-11-25T18:26:06.246Z,10.23
2022-11-25T18:28:36.916Z,9.25
2022-11-25T18:31:08.110Z,9.32
2022-11-25T18:33:37.360Z,8.27
2022-11-25T18:36:06.888Z,8.57
2022-11-25T18:38:35.954Z,9.15
2022-11-25T18:41:04.941Z,8.98
2022-11-25T18:43:35.030Z,9.10
2022-11-25T18:46:07.416Z,9.15
2022-11-25T18:48:37.515Z,8.30
2022-11-25T18:51:10.831Z,8.90
2022-11-25T18:53:41.952Z,10.65
2022-11-25T18:56:18.013Z,10.27
2022-11-25T18:58:52.265Z,9.00
2022-11-25T19:01:25.268Z,8.15
2022-11-25T19:03:55.537Z,9.00
2022-11-25T19:06:28.165Z,8.18
2022-11-25T19:08:57.543Z,7.28
2022-11-25T19:11:33.707Z,7.80
2022-11-25T19:14:09.087Z,9.18
2022-11-25T19:16:39.885Z,8.80
2022-11-25T19:19:09.560Z,8.98
2022-11-25T19:21:38.335Z,7.75
2022-11-25T19:24:14.046Z,7.65
2022-11-25T19:26:46.782Z,7.88
2022-11-25T19:29:20.559Z,8.32
2022-11-25T19:31:54.251Z,8.32
2022-11-25T19:34:30.600Z,8.80
2022-11-25T19:36:59.692Z,7.82
2022-11-25T19:39:29.436Z,10.48
2022-11-25T19:41:58.304Z,11.20
2022-11-25T19:44:27.140Z,8.30
2022-11-25T19:47:14.745Z,10.73
2022-11-25T19:49:45.172Z,10.40
2022-11-25T19:52:18.817Z,9.32
2022-11-25T19:54:47.745Z,13.85
2022-11-25T19:57:23.945Z,12.10
2022-11-25T19:59:53.389Z,9.65
2022-11-25T20:02:26.500Z,9.02
2022-11-25T20:04:58.204Z,8.70
2022-11-25T20:07:30.215Z,8.05
2022-11-25T20:10:13.443Z,8.95
2022-11-25T20:12:42.626Z,8.85
2022-11-25T20:15:13.164Z,8.18
2022-11-25T20:17:47.333Z,8.38
2022-11-25T20:20:20.823Z,9.60
2022-11-25T20:22:57.248Z,11.57
2022-11-25T20:25:26.573Z,13.50
2022-11-25T20:27:55.685Z,11.27
2022-11-25T20:30:27.072Z,10.95
2022-11-25T20:32:57.713Z,9.45
2022-11-25T20:35:28.356Z,8.82
2022-11-25T20:38:00.767Z,9.68
2022-11-25T20:40:39.212Z,8.98
2022-11-25T20:43:13.738Z,8.82
2022-11-25T20:45:42.774Z,8.27
2022-11-25T20:48:13.962Z,8.15
2022-11-25T20:50:43.188Z,8.52
2022-11-25T20:53:18.382Z,8.02
2022-11-25T20:58:55.968Z,8.00
2022-11-25T21:01:25.204Z,7.05
2022-11-25T21:03:55.514Z,7.18
2022-11-25T21:06:28.708Z,8.45
2022-11-25T21:09:01.793Z,7.43
2022-11-25T21:11:33.790Z,7.78
2022-11-25T21:14:02.830Z,8.10
2022-11-25T21:16:31.805Z,7.78
2022-11-25T21:19:02.701Z,7.65
2022-11-25T21:21:36.231Z,7.00
2022-11-25T21:24:22.965Z,7.55
2022-11-25T21:26:53.115Z,6.70
2022-11-25T21:29:22.594Z,8.05
2022-11-25T21:31:51.661Z,8.27
2022-11-25T21:34:22.343Z,8.20
2022-11-25T21:36:53.910Z,8.38
2022-11-25T21:39:30.470Z,8.18
2022-11-25T21:42:04.898Z,7.30
2022-11-25T21:44:38.351Z,7.82
2022-11-25T21:47:15.649Z,7.40
2022-11-25T21:49:46.611Z,7.38
2022-11-25T21:52:16.382Z,7.80
2022-11-25T21:54:45.644Z,7.70
2022-11-25T21:57:17.779Z,7.72
2022-11-25T21:59:48.016Z,7.72
2022-11-25T22:02:20.065Z,7.57
2022-11-25T22:04:50.525Z,7.65
2022-11-25T22:07:19.628Z,7.68
2022-11-25T22:09:48.524Z,8.20
2022-11-25T22:15:24.660Z,7.97
2022-11-25T22:17:58.017Z,8.90
2022-11-25T22:20:33.700Z,8.38
2022-11-25T22:23:03.885Z,8.43
2022-11-25T22:25:34.664Z,8.18
2022-11-25T22:28:03.850Z,8.73
2022-11-25T22:30:32.620Z,8.30
2022-11-25T22:33:04.782Z,8.32
2022-11-25T22:35:35.344Z,8.40
2022-11-25T22:38:18.974Z,8.77
2022-11-25T22:40:52.132Z,9.05
2022-11-25T22:43:26.961Z,9.85
2022-11-25T22:45:56.817Z,9.70
2022-11-25T22:48:32.977Z,8.32
2022-11-25T22:51:03.673Z,9.40
2022-11-25T22:53:32.596Z,8.95
2022-11-25T22:56:01.537Z,8.15
2022-11-25T22:58:30.606Z,9.23
2022-11-25T23:00:59.672Z,9.02
2022-11-25T23:03:30.590Z,8.55
2022-11-25T23:06:02.017Z,10.23
2022-11-25T23:08:33.134Z,9.00
2022-11-25T23:11:04.488Z,9.43
2022-11-25T23:13:46.831Z,9.57
2022-11-25T23:16:16.569Z,9.25
2022-11-25T23:18:57.818Z,10.75
2022-11-25T23:21:29.313Z,9.93
2022-11-25T23:24:00.127Z,10.27
2022-11-25T23:26:34.771Z,9.73
2022-11-25T23:29:03.875Z,9.15
2022-11-25T23:31:35.497Z,9.48
2022-11-25T23:34:14.802Z,9.02
2022-11-25T23:36:46.863Z,9.63
2022-11-25T23:39:29.614Z,8.90
2022-11-25T23:42:10.402Z,9.32
2022-11-25T23:44:39.535Z,9.93
2022-11-25T23:47:15.712Z,8.48
2022-11-25T23:50:05.089Z,8.30
2022-11-25T23:52:34.204Z,8.20
2022-11-25T23:55:07.191Z,8.98
2022-11-25T23:57:57.867Z,9.13
